createdAt,value
2023-04-18T00:02:15.601Z,2.00
2023-04-18T00:05:04.540Z,2.20
2023-04-18T00:07:52.036Z,2.60
2023-04-18T00:10:39.012Z,2.20
2023-04-18T00:13:28.537Z,2.40
2023-04-18T00:16:15.857Z,2.20
2023-04-18T00:19:04.954Z,2.70
2023-04-18T00:21:53.341Z,2.50
2023-04-18T00:24:40.550Z,2.30
2023-04-18T00:27:27.228Z,3.50
2023-04-18T00:30:14.323Z,1.80
2023-04-18T00:33:01.656Z,2.60
2023-04-18T00:35:48.913Z,2.10
2023-04-18T00:38:35.922Z,2.10
2023-04-18T00:41:25.649Z,1.80
2023-04-18T00:44:12.630Z,1.90
2023-04-18T00:46:59.853Z,2.00
2023-04-18T00:49:48.577Z,2.00
2023-04-18T00:52:36.439Z,2.90
2023-04-18T00:55:24.365Z,2.70
2023-04-18T00:58:12.330Z,2.10
2023-04-18T01:00:59.438Z,2.20
2023-04-18T01:03:46.251Z,2.80
2023-04-18T01:06:35.619Z,1.80
2023-04-18T01:09:23.985Z,1.90
2023-04-18T01:12:11.995Z,2.50
2023-04-18T01:15:00.836Z,2.20
2023-04-18T01:17:48.965Z,2.10
2023-04-18T01:20:41.245Z,1.90
2023-04-18T01:23:28.789Z,2.30
2023-04-18T01:26:15.996Z,1.90
2023-04-18T01:29:02.904Z,2.10
2023-04-18T01:31:50.581Z,2.10
2023-04-18T01:34:37.416Z,1.70
2023-04-18T01:37:25.900Z,2.20
2023-04-18T01:40:13.026Z,2.30
2023-04-18T01:42:59.828Z,1.70
2023-04-18T01:45:46.641Z,4.00
2023-04-18T01:48:33.647Z,2.40
2023-04-18T01:51:20.671Z,2.20
2023-04-18T01:54:07.792Z,1.90
2023-04-18T01:56:54.710Z,2.10
2023-04-18T01:59:42.536Z,2.60
2023-04-18T02:02:29.659Z,1.70
2023-04-18T02:05:17.504Z,1.70
2023-04-18T02:08:04.823Z,2.00
2023-04-18T02:10:51.729Z,2.00
2023-04-18T02:13:38.445Z,2.20
2023-04-18T02:16:27.023Z,3.50
2023-04-18T02:19:13.913Z,1.70
2023-04-18T02:22:02.244Z,1.60
2023-04-18T02:24:49.050Z,2.60
2023-04-18T02:27:36.076Z,1.90
2023-04-18T02:30:23.885Z,1.90
2023-04-18T02:33:11.130Z,2.00
2023-04-18T02:35:58.065Z,2.60
2023-04-18T02:38:45.551Z,2.80
2023-04-18T02:41:34.950Z,1.60
2023-04-18T02:44:21.448Z,2.50
2023-04-18T02:47:08.266Z,1.60
2023-04-18T02:49:57.245Z,2.10
2023-04-18T02:52:46.076Z,1.70
2023-04-18T02:55:33.404Z,2.00
2023-04-18T02:58:20.321Z,1.90
2023-04-18T03:01:36.675Z,2.30
2023-04-18T03:04:30.600Z,2.30
2023-04-18T03:07:23.329Z,2.30
2023-04-18T03:10:11.502Z,1.80
2023-04-18T03:12:58.436Z,1.60
2023-04-18T03:15:46.166Z,3.00
2023-04-18T03:18:33.878Z,2.00
2023-04-18T03:21:22.421Z,1.80
2023-04-18T03:24:12.198Z,1.90
2023-04-18T03:27:00.751Z,2.10
2023-04-18T03:29:47.681Z,1.60
2023-04-18T03:32:36.388Z,2.00
2023-04-18T03:35:23.545Z,2.10
2023-04-18T03:38:10.531Z,2.50
2023-04-18T03:40:59.001Z,2.10
2023-04-18T03:43:50.932Z,1.70
2023-04-18T03:46:37.860Z,1.70
2023-04-18T03:49:25.886Z,1.70
2023-04-18T03:52:12.704Z,2.50
2023-04-18T03:55:01.975Z,1.70
2023-04-18T03:57:52.577Z,2.10
2023-04-18T04:00:45.117Z,1.80
2023-04-18T04:03:32.008Z,2.80
2023-04-18T04:06:19.258Z,2.00
2023-04-18T04:09:06.598Z,1.90
2023-04-18T04:11:54.214Z,1.60
2023-04-18T04:14:41.191Z,1.70
2023-04-18T04:17:29.407Z,2.40
2023-04-18T04:20:17.198Z,2.50
2023-04-18T04:23:06.581Z,1.80
2023-04-18T04:25:56.156Z,3.60
2023-04-18T04:29:05.804Z,2.10
2023-04-18T04:31:54.118Z,11.50
2023-04-18T04:34:50.565Z,11.00
2023-04-18T04:37:38.825Z,67.70
2023-04-18T04:40:33.010Z,52.00
2023-04-18T04:43:28.874Z,38.60
2023-04-18T04:46:16.279Z,32.60
2023-04-18T04:49:03.680Z,50.60
2023-04-18T04:51:50.804Z,103.30
2023-04-18T04:54:37.822Z,61.90
2023-04-18T04:57:26.288Z,51.00
2023-04-18T05:00:14.306Z,47.50
2023-04-18T05:03:02.357Z,43.40
2023-04-18T05:05:49.982Z,38.50
2023-04-18T05:08:36.985Z,48.90
2023-04-18T05:11:23.804Z,37.00
2023-04-18T05:14:12.646Z,38.00
2023-04-18T05:17:00.360Z,39.20
2023-04-18T05:19:47.416Z,34.00
2023-04-18T05:22:34.006Z,27.30
2023-04-18T05:25:21.438Z,43.30
2023-04-18T05:28:08.884Z,28.50
2023-04-18T05:31:01.950Z,31.80
2023-04-18T05:33:48.839Z,38.30
2023-04-18T05:36:36.264Z,28.80
2023-04-18T05:39:23.284Z,29.00
2023-04-18T05:42:09.896Z,33.20
2023-04-18T05:44:56.504Z,29.50
2023-04-18T05:47:43.531Z,25.70
2023-04-18T05:50:30.221Z,22.40
2023-04-18T05:53:17.444Z,23.70
2023-04-18T05:56:04.758Z,24.60
2023-04-18T05:58:51.483Z,18.60
2023-04-18T06:01:38.593Z,17.60
2023-04-18T06:04:25.246Z,18.80
2023-04-18T06:07:12.729Z,19.20
2023-04-18T06:09:59.649Z,15.50
2023-04-18T06:12:46.565Z,20.50
2023-04-18T06:15:34.899Z,14.20
2023-04-18T06:18:22.114Z,15.10
2023-04-18T06:21:09.040Z,13.40
2023-04-18T06:23:56.175Z,13.70
2023-04-18T06:26:43.266Z,11.00
2023-04-18T06:29:33.279Z,10.70
2023-04-18T06:32:20.394Z,12.30
2023-04-18T06:35:08.117Z,9.50
2023-04-18T06:37:55.220Z,13.10
2023-04-18T06:40:42.237Z,11.60
2023-04-18T06:43:29.045Z,9.20
2023-04-18T06:46:16.241Z,9.70
2023-04-18T06:49:03.087Z,10.20
2023-04-18T06:51:49.691Z,9.20
2023-04-18T06:54:36.464Z,6.50
2023-04-18T07:00:15.646Z,8.40
2023-04-18T07:03:11.431Z,9.20
2023-04-18T07:05:58.512Z,7.40
2023-04-18T07:08:45.813Z,8.20
2023-04-18T07:11:35.087Z,8.80
2023-04-18T07:14:23.920Z,8.00
2023-04-18T07:20:03.416Z,6.90
2023-04-18T07:22:50.535Z,5.90
2023-04-18T07:25:38.579Z,5.30
2023-04-18T07:28:25.474Z,7.40
2023-04-18T07:31:14.635Z,6.70
2023-04-18T07:34:01.649Z,7.60
2023-04-18T07:36:48.976Z,6.20
2023-04-18T07:39:36.406Z,7.60
2023-04-18T07:42:23.624Z,5.80
2023-04-18T07:45:11.378Z,6.30
2023-04-18T07:47:58.340Z,4.80
2023-04-18T07:50:45.083Z,4.20
2023-04-18T07:53:32.174Z,4.50
2023-04-18T07:56:19.116Z,4.30
2023-04-18T07:59:06.034Z,5.30
2023-04-18T08:01:53.257Z,4.00
2023-04-18T08:04:40.604Z,6.00
2023-04-18T08:07:27.791Z,6.50
2023-04-18T08:10:14.916Z,6.20
2023-04-18T08:13:01.718Z,7.60
2023-04-18T08:15:48.766Z,6.70
2023-04-18T08:18:36.164Z,6.20
2023-04-18T08:21:23.185Z,4.60
2023-04-18T08:24:10.108Z,5.20
2023-04-18T08:26:57.728Z,5.70
2023-04-18T08:29:44.550Z,5.00
2023-04-18T08:32:32.440Z,3.80
2023-04-18T08:35:19.488Z,4.20
2023-04-18T08:38:06.193Z,5.90
2023-04-18T08:40:53.122Z,5.80
2023-04-18T08:43:58.152Z,3.70
2023-04-18T08:47:03.396Z,5.20
2023-04-18T08:49:52.251Z,5.80
2023-04-18T08:52:45.300Z,3.50
2023-04-18T08:55:33.919Z,5.20
2023-04-18T08:58:25.691Z,5.50
2023-04-18T09:01:57.163Z,5.00
2023-04-18T09:04:49.439Z,4.20
2023-04-18T09:07:36.814Z,3.10
2023-04-18T09:10:29.045Z,6.20
2023-04-18T09:13:47.476Z,5.20
2023-04-18T09:16:47.344Z,3.90
2023-04-18T09:19:34.444Z,3.40
2023-04-18T09:22:22.170Z,3.80
2023-04-18T09:25:57.366Z,5.10
2023-04-18T09:28:44.844Z,3.30
2023-04-18T09:32:01.184Z,3.30
2023-04-18T09:34:48.261Z,6.70
2023-04-18T09:37:35.585Z,6.00
2023-04-18T09:40:24.182Z,8.20
2023-04-18T09:43:19.408Z,5.40
2023-04-18T09:46:08.281Z,10.10
2023-04-18T09:48:55.117Z,6.80
2023-04-18T09:51:44.950Z,15.70
2023-04-18T09:54:35.617Z,17.30
2023-04-18T09:57:26.626Z,13.80
2023-04-18T10:00:24.455Z,15.00
2023-04-18T10:03:14.855Z,12.10
2023-04-18T10:06:02.520Z,11.30
2023-04-18T10:08:52.823Z,9.30
2023-04-18T10:11:40.533Z,10.70
2023-04-18T10:14:28.563Z,13.00
2023-04-18T10:17:16.316Z,8.80
2023-04-18T10:20:13.460Z,8.40
2023-04-18T10:23:32.738Z,9.00
2023-04-18T10:35:01.257Z,7.20
2023-04-18T10:37:51.793Z,10.50
2023-04-18T10:40:38.476Z,8.80
2023-04-18T10:43:25.602Z,8.00
2023-04-18T10:46:27.988Z,6.20
2023-04-18T10:49:22.896Z,7.60
2023-04-18T10:55:18.731Z,7.30
2023-04-18T10:58:06.072Z,5.20
2023-04-18T11:00:53.536Z,9.60
2023-04-18T11:03:40.962Z,6.50
2023-04-18T11:06:28.636Z,5.10
2023-04-18T11:09:15.956Z,4.70
2023-04-18T11:12:05.561Z,4.20
2023-04-18T11:14:52.746Z,6.00
2023-04-18T11:17:40.722Z,6.20
2023-04-18T11:20:28.492Z,6.00
2023-04-18T11:23:23.103Z,7.10
2023-04-18T11:26:10.339Z,20.30
2023-04-18T11:28:57.972Z,5.70
2023-04-18T11:31:55.267Z,7.40
2023-04-18T11:34:44.603Z,8.10
2023-04-18T11:37:32.743Z,7.60
2023-04-18T11:40:19.563Z,10.80
2023-04-18T11:43:10.767Z,7.00
2023-04-18T11:45:59.598Z,7.70
2023-04-18T11:48:47.969Z,8.00
2023-04-18T11:51:37.240Z,8.00
2023-04-18T11:54:44.884Z,7.20
2023-04-18T11:57:33.185Z,7.20
2023-04-18T12:00:31.162Z,7.20
2023-04-18T12:06:11.038Z,5.40
2023-04-18T12:09:02.540Z,4.40
2023-04-18T12:12:03.897Z,7.20
2023-04-18T12:14:59.510Z,5.80
2023-04-18T12:17:53.779Z,5.10
2023-04-18T12:20:52.795Z,5.20
2023-04-18T12:26:34.834Z,4.70
2023-04-18T12:29:21.959Z,5.50
2023-04-18T12:32:08.947Z,5.70
2023-04-18T12:34:56.069Z,5.40
2023-04-18T12:37:43.082Z,5.20
2023-04-18T12:40:30.411Z,6.20
2023-04-18T12:43:18.371Z,5.40
2023-04-18T12:46:05.374Z,4.10
2023-04-18T12:48:52.468Z,5.20
2023-04-18T12:51:40.758Z,10.10
2023-04-18T12:54:28.312Z,4.90
2023-04-18T12:57:15.976Z,9.00
2023-04-18T13:00:23.633Z,10.70
2023-04-18T13:03:12.563Z,25.40
2023-04-18T13:06:00.579Z,13.90
2023-04-18T13:08:48.328Z,14.00
2023-04-18T13:11:35.432Z,8.00
2023-04-18T13:14:22.248Z,11.10
2023-04-18T13:17:09.889Z,5.40
2023-04-18T13:19:56.938Z,7.20
2023-04-18T13:22:45.256Z,8.90
2023-04-18T13:25:32.575Z,5.60
2023-04-18T13:28:19.580Z,5.50
2023-04-18T13:31:06.931Z,5.90
2023-04-18T13:33:53.721Z,5.60
2023-04-18T13:36:40.532Z,9.30
2023-04-18T13:39:29.687Z,5.90
2023-04-18T13:42:18.135Z,8.10
2023-04-18T13:45:05.552Z,5.50
2023-04-18T13:47:53.077Z,7.60
2023-04-18T13:50:40.327Z,7.70
2023-04-18T13:53:28.387Z,5.40
2023-04-18T13:56:16.391Z,6.10
2023-04-18T13:59:03.109Z,5.80
2023-04-18T14:01:51.595Z,4.20
2023-04-18T14:04:39.185Z,10.10
2023-04-18T14:07:25.767Z,5.20
2023-04-18T14:10:12.704Z,5.60
2023-04-18T14:12:59.424Z,4.60
2023-04-18T14:15:46.556Z,6.80
2023-04-18T14:18:33.851Z,5.50
2023-04-18T14:21:20.452Z,6.00
2023-04-18T14:24:08.730Z,6.10
2023-04-18T14:26:55.598Z,6.40
2023-04-18T14:29:42.322Z,5.40
2023-04-18T14:32:29.862Z,6.70
2023-04-18T14:35:16.996Z,8.10
2023-04-18T14:38:03.786Z,8.30
2023-04-18T14:40:50.910Z,6.10
2023-04-18T14:43:37.625Z,5.70
2023-04-18T14:46:24.658Z,6.50
2023-04-18T14:49:11.737Z,6.60
2023-04-18T14:51:58.765Z,7.20
2023-04-18T14:54:45.992Z,7.00
2023-04-18T14:57:34.919Z,6.00
2023-04-18T15:00:22.279Z,5.30
2023-04-18T15:03:11.229Z,5.80
2023-04-18T15:05:58.356Z,6.60
2023-04-18T15:08:45.056Z,8.10
2023-04-18T15:11:32.066Z,7.50
2023-04-18T15:14:20.212Z,7.40
2023-04-18T15:17:06.915Z,6.60
2023-04-18T15:19:53.602Z,10.30
2023-04-18T15:22:40.628Z,8.10
2023-04-18T15:25:27.976Z,8.10
2023-04-18T15:28:18.240Z,6.10
2023-04-18T15:31:07.022Z,6.30
2023-04-18T15:33:55.050Z,7.10
2023-04-18T15:36:42.388Z,7.10
2023-04-18T15:39:29.340Z,5.90
2023-04-18T15:42:16.543Z,8.40
2023-04-18T15:45:04.786Z,6.00
2023-04-18T15:47:51.814Z,5.90
2023-04-18T15:50:38.739Z,6.10
2023-04-18T15:53:25.605Z,4.70
2023-04-18T15:56:12.841Z,6.20
2023-04-18T15:59:00.572Z,5.60
2023-04-18T16:01:47.512Z,5.30
2023-04-18T16:04:34.755Z,5.00
2023-04-18T16:07:23.865Z,5.30
2023-04-18T16:10:11.313Z,7.20
2023-04-18T16:12:59.742Z,8.50
2023-04-18T16:15:48.341Z,8.00
2023-04-18T16:18:35.710Z,7.10
2023-04-18T16:21:22.526Z,12.10
2023-04-18T16:24:09.131Z,9.30
2023-04-18T16:26:56.917Z,16.50
2023-04-18T16:29:44.709Z,16.10
2023-04-18T16:32:31.567Z,12.20
2023-04-18T16:35:18.633Z,6.60
2023-04-18T16:38:06.573Z,8.90
2023-04-18T16:41:01.558Z,9.00
2023-04-18T16:43:48.902Z,8.50
2023-04-18T16:46:36.167Z,14.90
2023-04-18T16:49:23.977Z,9.80
2023-04-18T16:52:10.823Z,8.60
2023-04-18T16:54:57.883Z,9.60
2023-04-18T16:57:44.695Z,14.60
2023-04-18T17:00:31.922Z,8.00
2023-04-18T17:03:19.086Z,10.80
2023-04-18T17:06:07.381Z,11.80
2023-04-18T17:08:54.513Z,9.90
2023-04-18T17:11:42.139Z,7.30
2023-04-18T17:14:29.047Z,10.50
2023-04-18T17:17:16.170Z,9.30
2023-04-18T17:20:02.872Z,9.00
2023-04-18T17:22:50.098Z,6.70
2023-04-18T17:25:37.528Z,10.00
2023-04-18T17:28:25.228Z,9.10
2023-04-18T17:31:15.463Z,9.20
2023-04-18T17:34:03.891Z,5.60
2023-04-18T17:36:53.367Z,7.70
2023-04-18T17:39:40.794Z,8.40
2023-04-18T17:42:27.910Z,9.30
2023-04-18T17:45:15.128Z,9.70
2023-04-18T17:48:03.236Z,5.80
2023-04-18T17:50:50.183Z,8.30
2023-04-18T17:53:37.154Z,5.30
2023-04-18T17:56:24.626Z,5.80
2023-04-18T17:59:12.299Z,7.20
2023-04-18T18:01:59.828Z,5.70
2023-04-18T18:04:47.407Z,6.60
2023-04-18T18:07:37.394Z,7.30
2023-04-18T18:10:25.125Z,7.10
2023-04-18T18:13:12.139Z,7.60
2023-04-18T18:16:02.332Z,7.80
2023-04-18T18:18:51.246Z,8.50
2023-04-18T18:21:38.003Z,9.20
2023-04-18T18:24:27.073Z,12.60
2023-04-18T18:27:13.993Z,7.20
2023-04-18T18:30:01.006Z,10.80
2023-04-18T18:32:48.589Z,14.20
2023-04-18T18:35:36.475Z,8.00
2023-04-18T18:38:23.622Z,9.40
2023-04-18T18:41:10.716Z,8.70
2023-04-18T18:43:57.512Z,11.00
2023-04-18T18:46:44.327Z,7.70
2023-04-18T18:49:31.034Z,8.70
2023-04-18T18:52:17.834Z,7.70
2023-04-18T18:55:05.205Z,11.50
2023-04-18T18:57:52.091Z,7.30
2023-04-18T19:00:39.000Z,6.20
2023-04-18T19:03:25.914Z,10.00
2023-04-18T19:06:12.624Z,5.70
2023-04-18T19:08:59.542Z,9.60
2023-04-18T19:11:45.887Z,10.10
2023-04-18T19:14:33.112Z,8.30
2023-04-18T19:17:25.964Z,9.70
2023-04-18T19:20:13.441Z,6.50
2023-04-18T19:23:00.521Z,6.50
2023-04-18T19:25:47.568Z,7.10
2023-04-18T19:28:34.989Z,5.60
2023-04-18T19:31:23.980Z,5.30
2023-04-18T19:34:12.048Z,5.90
2023-04-18T19:36:59.937Z,8.30
2023-04-18T19:39:46.959Z,7.30
2023-04-18T19:42:33.855Z,5.00
2023-04-18T19:45:20.686Z,7.80
2023-04-18T19:48:07.439Z,9.70
2023-04-18T19:50:56.547Z,7.70
2023-04-18T19:53:43.558Z,5.70
2023-04-18T19:56:30.606Z,5.00
2023-04-18T19:59:17.893Z,6.00
2023-04-18T20:02:06.684Z,6.00
2023-04-18T20:04:53.561Z,5.90
2023-04-18T20:07:41.785Z,5.40
2023-04-18T20:10:29.339Z,7.60
2023-04-18T20:13:16.333Z,8.20
2023-04-18T20:16:07.688Z,6.30
2023-04-18T20:18:56.712Z,8.80
2023-04-18T20:21:44.029Z,6.70
2023-04-18T20:24:32.010Z,5.80
2023-04-18T20:27:22.195Z,6.90
2023-04-18T20:30:09.607Z,5.90
2023-04-18T20:32:56.711Z,6.20
2023-04-18T20:35:44.639Z,5.40
2023-04-18T20:38:31.589Z,7.20
2023-04-18T20:41:20.963Z,5.80
2023-04-18T20:44:10.114Z,5.60
2023-04-18T20:46:56.862Z,4.90
2023-04-18T20:49:43.752Z,5.60
2023-04-18T20:52:30.655Z,5.00
2023-04-18T20:55:17.984Z,5.80
2023-04-18T20:58:05.002Z,6.30
2023-04-18T21:00:52.641Z,6.80
2023-04-18T21:03:39.734Z,7.20
2023-04-18T21:06:27.485Z,6.20
2023-04-18T21:09:14.795Z,5.80
2023-04-18T21:12:03.871Z,5.50
2023-04-18T21:14:50.663Z,5.30
2023-04-18T21:17:37.530Z,4.40
2023-04-18T21:20:24.337Z,5.70
2023-04-18T21:23:11.104Z,4.50
2023-04-18T21:25:58.349Z,5.50
2023-04-18T21:28:56.265Z,5.40
2023-04-18T21:31:43.597Z,5.20
2023-04-18T21:34:30.551Z,6.50
2023-04-18T21:37:17.283Z,6.50
2023-04-18T21:40:05.474Z,5.00
2023-04-18T21:42:52.525Z,5.30
2023-04-18T21:45:39.376Z,5.30
2023-04-18T21:48:26.139Z,6.60
2023-04-18T21:51:14.656Z,6.40
2023-04-18T21:54:01.498Z,5.10
2023-04-18T21:56:48.312Z,6.40
2023-04-18T21:59:35.131Z,4.40
2023-04-18T22:02:22.159Z,5.00
2023-04-18T22:05:09.365Z,4.50
2023-04-18T22:07:58.702Z,6.70
2023-04-18T22:10:49.854Z,4.70
2023-04-18T22:13:36.553Z,5.90
2023-04-18T22:16:24.760Z,5.40
2023-04-18T22:19:12.285Z,5.60
2023-04-18T22:21:59.344Z,4.60
2023-04-18T22:24:47.526Z,4.40
2023-04-18T22:27:35.522Z,5.40
2023-04-18T22:30:22.654Z,4.70
2023-04-18T22:33:09.653Z,5.60
2023-04-18T22:35:56.374Z,6.30
2023-04-18T22:38:43.185Z,5.40
2023-04-18T22:41:30.192Z,5.40
2023-04-18T22:44:17.254Z,4.90
2023-04-18T22:47:04.667Z,5.00
2023-04-18T22:49:51.952Z,4.50
2023-04-18T22:52:38.292Z,4.80
2023-04-18T22:55:25.385Z,5.00
2023-04-18T22:58:13.605Z,4.40
2023-04-18T23:01:00.852Z,5.20
2023-04-18T23:03:48.088Z,5.40
2023-04-18T23:06:36.901Z,4.30
2023-04-18T23:09:24.865Z,3.80
2023-04-18T23:12:11.789Z,5.10
2023-04-18T23:14:58.690Z,4.40
2023-04-18T23:17:45.531Z,4.90
2023-04-18T23:20:32.615Z,4.20
2023-04-18T23:23:19.947Z,4.40
2023-04-18T23:26:16.602Z,5.40
2023-04-18T23:29:03.795Z,4.10
2023-04-18T23:31:51.678Z,4.50
2023-04-18T23:34:38.758Z,4.60
2023-04-18T23:37:25.975Z,4.40
2023-04-18T23:40:12.989Z,4.90
2023-04-18T23:43:01.956Z,4.90
2023-04-18T23:45:48.461Z,6.10
2023-04-18T23:48:36.193Z,4.50
2023-04-18T23:51:23.321Z,6.00
2023-04-18T23:54:11.046Z,4.80
2023-04-18T23:56:58.462Z,4.60
2023-04-18T23:59:45.485Z,5.30
